KLM1848 LTAI-LCLK
Flight info
| Callsign | KLM1848 |
|---|---|
| Flight time | 0h 36m |
| Altitude | 27000 |
| Route | TOMBI1S TOMBI A16 DASNI R19 BONEK BONEK1R |
| Aircraft | B738/M-L/S |
Departure
| Time | 2026-05-05 16:45 |
|---|---|
| Airport | Antalya International Airport (LTAI) |
Arrival
| Time | 2026-05-05 17:22 |
|---|---|
| Airport | Larnaca International Airport (LCLK) |
| Time | Latitude | Longitude | Altitude | Speed | Heading |
|---|---|---|---|---|---|
| 2026-05-05 16:26 | 36.89700 | 30.80162 | 180 ft | 0 kts | 350° |
| 2026-05-05 16:35 | 36.89695 | 30.80162 | 180 ft | 2 kts | 350° |
| 2026-05-05 16:36 | 36.89681 | 30.80166 | 180 ft | 2 kts | 351° |
| 2026-05-05 16:36 | 36.89666 | 30.80169 | 180 ft | 2 kts | 350° |
| 2026-05-05 16:36 | 36.89651 | 30.80172 | 180 ft | 2 kts | 350° |
| 2026-05-05 16:36 | 36.89637 | 30.80175 | 180 ft | 2 kts | 350° |
| 2026-05-05 16:37 | 36.89622 | 30.80178 | 180 ft | 2 kts | 350° |
| 2026-05-05 16:37 | 36.89608 | 30.80176 | 180 ft | 2 kts | 45° |
| 2026-05-05 16:37 | 36.89603 | 30.80162 | 180 ft | 0 kts | 92° |
| 2026-05-05 16:37 | 36.89605 | 30.80154 | 180 ft | 1 kts | 97° |
| 2026-05-05 16:38 | 36.89605 | 30.80152 | 180 ft | 0 kts | 97° |
| 2026-05-05 16:39 | 36.89604 | 30.80155 | 180 ft | 1 kts | 97° |
| 2026-05-05 16:39 | 36.89600 | 30.80201 | 180 ft | 9 kts | 97° |
| 2026-05-05 16:39 | 36.89596 | 30.80236 | 180 ft | 1 kts | 97° |
| 2026-05-05 16:39 | 36.89595 | 30.80248 | 180 ft | 4 kts | 97° |
| 2026-05-05 16:40 | 36.89593 | 30.80290 | 180 ft | 4 kts | 88° |
| 2026-05-05 16:40 | 36.89591 | 30.80345 | 180 ft | 9 kts | 97° |
| 2026-05-05 16:40 | 36.89579 | 30.80459 | 178 ft | 16 kts | 97° |
| 2026-05-05 16:40 | 36.89566 | 30.80613 | 175 ft | 17 kts | 95° |
| 2026-05-05 16:41 | 36.89630 | 30.80697 | 173 ft | 16 kts | 7° |
| 2026-05-05 16:41 | 36.89756 | 30.80715 | 173 ft | 19 kts | 7° |
| 2026-05-05 16:41 | 36.89896 | 30.80734 | 174 ft | 20 kts | 6° |
| 2026-05-05 16:41 | 36.90041 | 30.80754 | 174 ft | 22 kts | 6° |
| 2026-05-05 16:42 | 36.90213 | 30.80777 | 175 ft | 26 kts | 7° |
| 2026-05-05 16:42 | 36.90413 | 30.80805 | 176 ft | 31 kts | 6° |
| 2026-05-05 16:42 | 36.90630 | 30.80835 | 178 ft | 29 kts | 7° |
| 2026-05-05 16:42 | 36.90839 | 30.80864 | 180 ft | 31 kts | 6° |
| 2026-05-05 16:43 | 36.91053 | 30.80894 | 181 ft | 27 kts | 6° |
| 2026-05-05 16:43 | 36.91138 | 30.80945 | 181 ft | 11 kts | 76° |
| 2026-05-05 16:43 | 36.91134 | 30.81047 | 180 ft | 11 kts | 96° |
| 2026-05-05 16:43 | 36.91116 | 30.81125 | 180 ft | 7 kts | 144° |
| 2026-05-05 16:44 | 36.91079 | 30.81131 | 180 ft | 0 kts | 186° |
| 2026-05-05 16:44 | 36.91007 | 30.81121 | 180 ft | 47 kts | 186° |
| 2026-05-05 16:45 | 36.90313 | 30.81027 | 177 ft | 147 kts | 186° |
| 2026-05-05 16:45 | 36.89182 | 30.80859 | 839 ft | 178 kts | 186° |
| 2026-05-05 16:45 | 36.87958 | 30.80931 | 2067 ft | 180 kts | 174° |
| 2026-05-05 16:45 | 36.86720 | 30.81075 | 3012 ft | 187 kts | 175° |
| 2026-05-05 16:46 | 36.85377 | 30.81315 | 3697 ft | 210 kts | 172° |
| 2026-05-05 16:46 | 36.83870 | 30.81691 | 4388 ft | 237 kts | 172° |
| 2026-05-05 16:46 | 36.82187 | 30.82027 | 5314 ft | 255 kts | 174° |
| 2026-05-05 16:46 | 36.80425 | 30.82351 | 6382 ft | 265 kts | 174° |
| 2026-05-05 16:47 | 36.78580 | 30.82685 | 7493 ft | 273 kts | 175° |
| 2026-05-05 16:47 | 36.76716 | 30.83018 | 8581 ft | 280 kts | 175° |
| 2026-05-05 16:47 | 36.74786 | 30.83360 | 9652 ft | 287 kts | 175° |
| 2026-05-05 16:47 | 36.72777 | 30.83715 | 10531 ft | 300 kts | 175° |
| 2026-05-05 16:48 | 36.70618 | 30.84092 | 10933 ft | 329 kts | 175° |
| 2026-05-05 16:48 | 36.68320 | 30.84498 | 11572 ft | 346 kts | 175° |
| 2026-05-05 16:48 | 36.65910 | 30.84672 | 12372 ft | 354 kts | 186° |
| 2026-05-05 16:48 | 36.63454 | 30.84334 | 13358 ft | 356 kts | 190° |
| 2026-05-05 16:49 | 36.60998 | 30.83958 | 14250 ft | 362 kts | 189° |
| 2026-05-05 16:49 | 36.58516 | 30.83614 | 15155 ft | 366 kts | 189° |
| 2026-05-05 16:49 | 36.55976 | 30.83257 | 16032 ft | 370 kts | 189° |
| 2026-05-05 16:49 | 36.53439 | 30.82894 | 16866 ft | 374 kts | 189° |
| 2026-05-05 16:50 | 36.50833 | 30.82520 | 17684 ft | 378 kts | 189° |
| 2026-05-05 16:50 | 36.48228 | 30.82148 | 18468 ft | 382 kts | 189° |
| 2026-05-05 16:50 | 36.45603 | 30.81772 | 19213 ft | 386 kts | 189° |
| 2026-05-05 16:50 | 36.42916 | 30.81395 | 19951 ft | 389 kts | 188° |
| 2026-05-05 16:51 | 36.40226 | 30.81215 | 20641 ft | 395 kts | 182° |
| 2026-05-05 16:51 | 36.37494 | 30.81318 | 21323 ft | 399 kts | 180° |
| 2026-05-05 16:51 | 36.34719 | 30.81440 | 21972 ft | 402 kts | 181° |
| 2026-05-05 16:51 | 36.31905 | 30.81528 | 22603 ft | 405 kts | 181° |
| 2026-05-05 16:52 | 36.29082 | 30.81614 | 23207 ft | 409 kts | 181° |
| 2026-05-05 16:52 | 36.26275 | 30.81706 | 23793 ft | 412 kts | 181° |
| 2026-05-05 16:52 | 36.23381 | 30.81803 | 24359 ft | 415 kts | 181° |
| 2026-05-05 16:52 | 36.20512 | 30.81897 | 24901 ft | 418 kts | 181° |
| 2026-05-05 16:53 | 36.17621 | 30.81993 | 25427 ft | 421 kts | 181° |
| 2026-05-05 16:53 | 36.14703 | 30.82090 | 25928 ft | 424 kts | 181° |
| 2026-05-05 16:53 | 36.11739 | 30.82188 | 26437 ft | 426 kts | 181° |
| 2026-05-05 16:53 | 36.08789 | 30.82286 | 26884 ft | 427 kts | 181° |
| 2026-05-05 16:54 | 36.05808 | 30.82385 | 26982 ft | 428 kts | 181° |
| 2026-05-05 16:54 | 36.02860 | 30.82491 | 26994 ft | 429 kts | 180° |
| 2026-05-05 16:54 | 35.99902 | 30.82658 | 26993 ft | 429 kts | 179° |
| 2026-05-05 16:54 | 35.96930 | 30.82857 | 26993 ft | 428 kts | 179° |
| 2026-05-05 16:55 | 35.93962 | 30.83046 | 26981 ft | 428 kts | 180° |
| 2026-05-05 16:55 | 35.91011 | 30.83226 | 26967 ft | 428 kts | 180° |
| 2026-05-05 16:55 | 35.88052 | 30.83405 | 26966 ft | 428 kts | 180° |
| 2026-05-05 16:55 | 35.85080 | 30.83587 | 26966 ft | 428 kts | 180° |
| 2026-05-05 16:56 | 35.82125 | 30.83767 | 26966 ft | 428 kts | 180° |
| 2026-05-05 16:56 | 35.79156 | 30.83946 | 26966 ft | 428 kts | 180° |
| 2026-05-05 16:56 | 35.76196 | 30.84126 | 26966 ft | 428 kts | 180° |
| 2026-05-05 16:56 | 35.73234 | 30.84343 | 26964 ft | 429 kts | 177° |
| 2026-05-05 16:57 | 35.70288 | 30.84966 | 26965 ft | 432 kts | 168° |
| 2026-05-05 16:57 | 35.67456 | 30.86204 | 26966 ft | 436 kts | 158° |
| 2026-05-05 16:57 | 35.64814 | 30.88100 | 26967 ft | 440 kts | 148° |
| 2026-05-05 16:57 | 35.62441 | 30.90481 | 26965 ft | 443 kts | 139° |
| 2026-05-05 16:58 | 35.60439 | 30.93344 | 26965 ft | 448 kts | 127° |
| 2026-05-05 16:58 | 35.58962 | 30.96681 | 26969 ft | 451 kts | 116° |
| 2026-05-05 16:58 | 35.57866 | 31.00317 | 26971 ft | 453 kts | 110° |
| 2026-05-05 16:58 | 35.56934 | 31.04009 | 26973 ft | 453 kts | 109° |
| 2026-05-05 16:59 | 35.55999 | 31.07698 | 26978 ft | 452 kts | 109° |
| 2026-05-05 16:59 | 35.55043 | 31.11379 | 26981 ft | 452 kts | 110° |
| 2026-05-05 16:59 | 35.54089 | 31.15058 | 26986 ft | 452 kts | 109° |
| 2026-05-05 16:59 | 35.53156 | 31.18680 | 26990 ft | 451 kts | 109° |
| 2026-05-05 17:00 | 35.52204 | 31.22386 | 26993 ft | 451 kts | 109° |
| 2026-05-05 17:00 | 35.51267 | 31.26034 | 26993 ft | 451 kts | 109° |
| 2026-05-05 17:00 | 35.50322 | 31.29710 | 26993 ft | 451 kts | 109° |
| 2026-05-05 17:00 | 35.49386 | 31.33349 | 26993 ft | 451 kts | 109° |
| 2026-05-05 17:01 | 35.48440 | 31.37026 | 26993 ft | 452 kts | 109° |
| 2026-05-05 17:01 | 35.47501 | 31.40676 | 26993 ft | 451 kts | 109° |
| 2026-05-05 17:01 | 35.46555 | 31.44346 | 26993 ft | 451 kts | 109° |
| 2026-05-05 17:01 | 35.45610 | 31.48008 | 26993 ft | 451 kts | 109° |
| 2026-05-05 17:02 | 35.44668 | 31.51654 | 26993 ft | 451 kts | 109° |
| 2026-05-05 17:02 | 35.43727 | 31.55291 | 26993 ft | 451 kts | 109° |
| 2026-05-05 17:02 | 35.42778 | 31.58956 | 26993 ft | 451 kts | 109° |
| 2026-05-05 17:02 | 35.41821 | 31.62646 | 26993 ft | 450 kts | 109° |
| 2026-05-05 17:03 | 35.40878 | 31.66275 | 26993 ft | 450 kts | 110° |
| 2026-05-05 17:03 | 35.39928 | 31.69929 | 26993 ft | 450 kts | 110° |
| 2026-05-05 17:03 | 35.38975 | 31.73589 | 26993 ft | 450 kts | 110° |
| 2026-05-05 17:03 | 35.36502 | 31.83062 | 27000 ft | 450 kts | 110° |
| 2026-05-05 17:04 | 35.23746 | 32.31455 | 27008 ft | 450 kts | 110° |
| 2026-05-05 17:04 | 35.22796 | 32.35093 | 26994 ft | 450 kts | 109° |
| 2026-05-05 17:04 | 35.21853 | 32.38742 | 26966 ft | 448 kts | 109° |
| 2026-05-05 17:04 | 35.20925 | 32.42313 | 26244 ft | 442 kts | 109° |
| 2026-05-05 17:05 | 35.19992 | 32.45868 | 25311 ft | 443 kts | 109° |
| 2026-05-05 17:05 | 35.19052 | 32.49438 | 24558 ft | 438 kts | 109° |
| 2026-05-05 17:05 | 35.18138 | 32.52906 | 23890 ft | 429 kts | 109° |
| 2026-05-05 17:05 | 35.17218 | 32.56381 | 23201 ft | 432 kts | 109° |
| 2026-05-05 17:06 | 35.16296 | 32.59859 | 22497 ft | 426 kts | 109° |
| 2026-05-05 17:06 | 35.15395 | 32.63255 | 21810 ft | 417 kts | 109° |
| 2026-05-05 17:06 | 35.14514 | 32.66566 | 21139 ft | 414 kts | 110° |
| 2026-05-05 17:06 | 35.13617 | 32.69930 | 20445 ft | 414 kts | 109° |
| 2026-05-05 17:07 | 35.12733 | 32.73243 | 19756 ft | 406 kts | 109° |
| 2026-05-05 17:07 | 35.11868 | 32.76480 | 19082 ft | 399 kts | 109° |
| 2026-05-05 17:07 | 35.11006 | 32.79697 | 18412 ft | 403 kts | 109° |
| 2026-05-05 17:07 | 35.10147 | 32.82904 | 17731 ft | 395 kts | 109° |
| 2026-05-05 17:08 | 35.09305 | 32.86042 | 17067 ft | 387 kts | 109° |
| 2026-05-05 17:08 | 35.08465 | 32.89167 | 16406 ft | 389 kts | 109° |
| 2026-05-05 17:08 | 35.07636 | 32.92248 | 15749 ft | 383 kts | 109° |
| 2026-05-05 17:08 | 35.06806 | 32.95285 | 15110 ft | 375 kts | 110° |
| 2026-05-05 17:09 | 35.05945 | 32.98271 | 14475 ft | 371 kts | 111° |
| 2026-05-05 17:09 | 35.05088 | 33.01225 | 13843 ft | 370 kts | 110° |
| 2026-05-05 17:09 | 35.04245 | 33.04156 | 13207 ft | 362 kts | 110° |
| 2026-05-05 17:09 | 35.03422 | 33.07015 | 12589 ft | 356 kts | 110° |
| 2026-05-05 17:10 | 35.02600 | 33.09868 | 11973 ft | 359 kts | 110° |
| 2026-05-05 17:10 | 35.01777 | 33.12722 | 11345 ft | 351 kts | 110° |
| 2026-05-05 17:10 | 35.00991 | 33.15447 | 10928 ft | 338 kts | 110° |
| 2026-05-05 17:10 | 35.00232 | 33.18083 | 10688 ft | 322 kts | 110° |
| 2026-05-05 17:11 | 34.99500 | 33.20617 | 10555 ft | 311 kts | 110° |
| 2026-05-05 17:11 | 34.98779 | 33.23107 | 10401 ft | 307 kts | 110° |
| 2026-05-05 17:11 | 34.98092 | 33.25485 | 10257 ft | 292 kts | 110° |
| 2026-05-05 17:11 | 34.97429 | 33.27773 | 10021 ft | 283 kts | 110° |
| 2026-05-05 17:12 | 34.96774 | 33.30032 | 9678 ft | 278 kts | 110° |
| 2026-05-05 17:12 | 34.96137 | 33.32231 | 9326 ft | 275 kts | 110° |
| 2026-05-05 17:12 | 34.95505 | 33.34404 | 8981 ft | 271 kts | 110° |
| 2026-05-05 17:12 | 34.94877 | 33.36562 | 8644 ft | 275 kts | 110° |
| 2026-05-05 17:13 | 34.94242 | 33.38743 | 8294 ft | 273 kts | 110° |
| 2026-05-05 17:13 | 34.93607 | 33.40922 | 7949 ft | 269 kts | 110° |
| 2026-05-05 17:13 | 34.92990 | 33.43041 | 7607 ft | 266 kts | 110° |
| 2026-05-05 17:13 | 34.92370 | 33.45168 | 7259 ft | 265 kts | 110° |
| 2026-05-05 17:14 | 34.91750 | 33.47293 | 6920 ft | 268 kts | 110° |
| 2026-05-05 17:14 | 34.91128 | 33.49426 | 6579 ft | 265 kts | 110° |
| 2026-05-05 17:14 | 34.90518 | 33.51517 | 6246 ft | 261 kts | 110° |
| 2026-05-05 17:14 | 34.89914 | 33.53584 | 5918 ft | 258 kts | 110° |
| 2026-05-05 17:15 | 34.89303 | 33.55671 | 5587 ft | 263 kts | 110° |
| 2026-05-05 17:15 | 34.88699 | 33.57735 | 5252 ft | 260 kts | 110° |
| 2026-05-05 17:15 | 34.88106 | 33.59801 | 4949 ft | 255 kts | 107° |
| 2026-05-05 17:15 | 34.87925 | 33.61936 | 4486 ft | 259 kts | 81° |
| 2026-05-05 17:16 | 34.88601 | 33.63936 | 4100 ft | 259 kts | 54° |
| 2026-05-05 17:16 | 34.89799 | 33.65528 | 3973 ft | 247 kts | 44° |
| 2026-05-05 17:16 | 34.91025 | 33.66996 | 3851 ft | 248 kts | 45° |
| 2026-05-05 17:16 | 34.92232 | 33.68453 | 3516 ft | 247 kts | 45° |
| 2026-05-05 17:17 | 34.93454 | 33.69919 | 3309 ft | 240 kts | 45° |
| 2026-05-05 17:17 | 34.94623 | 33.71319 | 3100 ft | 234 kts | 44° |
| 2026-05-05 17:17 | 34.95938 | 33.72414 | 2958 ft | 224 kts | 17° |
| 2026-05-05 17:17 | 34.97419 | 33.72431 | 2793 ft | 215 kts | 341° |
| 2026-05-05 17:18 | 34.98702 | 33.71579 | 2607 ft | 208 kts | 316° |
| 2026-05-05 17:18 | 34.99472 | 33.70160 | 2462 ft | 198 kts | 285° |
| 2026-05-05 17:18 | 34.99567 | 33.68510 | 2324 ft | 195 kts | 260° |
| 2026-05-05 17:18 | 34.99059 | 33.67003 | 2181 ft | 196 kts | 232° |
| 2026-05-05 17:19 | 34.98006 | 33.65949 | 2003 ft | 197 kts | 205° |
| 2026-05-05 17:19 | 34.96688 | 33.65603 | 1823 ft | 197 kts | 179° |
| 2026-05-05 17:19 | 34.95348 | 33.65697 | 1663 ft | 189 kts | 182° |
| 2026-05-05 17:19 | 34.94052 | 33.65633 | 1502 ft | 181 kts | 182° |
| 2026-05-05 17:20 | 34.92872 | 33.65612 | 1492 ft | 164 kts | 181° |
| 2026-05-05 17:20 | 34.91724 | 33.65602 | 1497 ft | 162 kts | 181° |
| 2026-05-05 17:20 | 34.90650 | 33.65540 | 1487 ft | 154 kts | 193° |
| 2026-05-05 17:20 | 34.89682 | 33.65002 | 1129 ft | 151 kts | 218° |
| 2026-05-05 17:21 | 34.88940 | 33.64201 | 573 ft | 140 kts | 221° |
| 2026-05-05 17:21 | 34.88254 | 33.63452 | 100 ft | 127 kts | 223° |
| 2026-05-05 17:21 | 34.87674 | 33.62758 | 14 ft | 101 kts | 224° |
| 2026-05-05 17:22 | 34.87152 | 33.62118 | 9 ft | 33 kts | 225° |
| 2026-05-05 17:22 | 34.86999 | 33.61894 | 10 ft | 32 kts | 249° |
| 2026-05-05 17:22 | 34.86944 | 33.61672 | 12 ft | 21 kts | 258° |
| 2026-05-05 17:22 | 34.86908 | 33.61508 | 16 ft | 17 kts | 253° |
| 2026-05-05 17:23 | 34.86887 | 33.61387 | 18 ft | 13 kts | 287° |
| 2026-05-05 17:23 | 34.86946 | 33.61306 | 21 ft | 12 kts | 316° |
| 2026-05-05 17:23 | 34.86996 | 33.61243 | 24 ft | 7 kts | 302° |
| 2026-05-05 17:23 | 34.86991 | 33.61195 | 27 ft | 6 kts | 221° |
| 2026-05-05 17:24 | 34.86961 | 33.61163 | 28 ft | 4 kts | 228° |
| 2026-05-05 17:24 | 34.86951 | 33.61148 | 28 ft | 0 kts | 229° |